Time;durP1;ratioP1;P1;durP2;ratioP2;P2;SDS_P1;SDS_P2;PMS_P1;PMS_P2;Temp;Humidity;BMP_temperature;BMP_pressure;BME280_temperature;BME280_humidity;BME280_pressure;Samples;Min_cycle;Max_cycle;Signal;HPM_P1;HPM_P2
2023/05/22 00:02:10;;;;;;;11.80;9.45;;;15.50;99.90;;;15.31;100.00;96827.81;4991238;28;20041;-36
2023/05/22 00:04:35;;;;;;;12.10;9.25;;;15.50;99.90;;;15.31;100.00;96832.25;4990357;28;20427;-37
2023/05/22 00:07:02;;;;;;;11.82;9.35;;;15.50;99.90;;;15.28;100.00;96830.66;4990007;28;20038;-37
2023/05/22 00:09:28;;;;;;;13.45;10.20;;;15.40;99.90;;;15.24;100.00;96834.47;4991543;28;20037;-36
2023/05/22 00:11:54;;;;;;;11.93;9.68;;;15.40;99.90;;;15.16;100.00;96826.13;4990833;28;20627;-38
2023/05/22 00:14:19;;;;;;;12.00;9.52;;;15.30;99.90;;;15.11;100.00;96822.91;4992855;28;20061;-36
2023/05/22 00:16:47;;;;;;;11.65;9.35;;;15.30;99.90;;;15.08;100.00;96822.16;4995338;28;20033;-36
2023/05/22 00:19:15;;;;;;;10.82;8.93;;;15.20;99.90;;;15.04;100.00;96823.31;4992794;28;20529;-37
2023/05/22 00:21:45;;;;;;;10.25;9.15;;;15.20;99.90;;;15.01;100.00;96820.00;4994527;28;20449;-37
2023/05/22 00:24:11;;;;;;;10.80;9.50;;;15.10;99.90;;;14.98;100.00;96828.16;4995447;28;20038;-37
2023/05/22 00:26:37;;;;;;;12.15;9.60;;;15.10;99.90;;;14.93;100.00;96817.84;4995347;28;20065;-38
2023/05/22 00:29:04;;;;;;;12.00;9.85;;;15.10;99.90;;;14.87;100.00;96818.22;4992981;28;20089;-37
2023/05/22 00:31:30;;;;;;;13.07;9.45;;;15.00;99.90;;;14.80;100.00;96815.09;4995619;28;20036;-37
2023/05/22 00:33:57;;;;;;;13.23;9.65;;;15.00;99.90;;;14.77;100.00;96814.44;4992632;28;20092;-38
2023/05/22 00:36:23;;;;;;;10.88;9.68;;;14.90;99.90;;;14.74;100.00;96812.00;4998473;28;20037;-36
2023/05/22 00:38:49;;;;;;;10.57;9.00;;;14.90;99.90;;;14.67;100.00;96811.53;4992506;28;20030;-37
2023/05/22 00:41:15;;;;;;;12.63;9.88;;;14.80;99.90;;;14.65;100.00;96816.94;4991952;28;20048;-37
2023/05/22 00:43:40;;;;;;;11.57;9.32;;;14.80;99.90;;;14.60;100.00;96820.81;4989479;28;20037;-36
2023/05/22 00:46:06;;;;;;;13.05;9.88;;;14.80;99.90;;;14.58;100.00;96822.72;4991655;28;20030;-37
2023/05/22 00:48:32;;;;;;;11.43;9.82;;;14.70;99.90;;;14.55;100.00;96814.91;4995596;28;20405;-36
2023/05/22 00:50:58;;;;;;;14.00;9.93;;;14.70;99.90;;;14.49;100.00;96814.34;4993185;28;20022;-36
2023/05/22 00:53:25;;;;;;;12.15;9.98;;;14.70;99.90;;;14.48;100.00;96809.13;4991196;28;20336;-36
2023/05/22 00:55:53;;;;;;;13.30;9.98;;;14.70;99.90;;;14.43;100.00;96819.19;4990436;28;20061;-36
2023/05/22 00:58:20;;;;;;;13.02;10.38;;;14.60;99.90;;;14.37;100.00;96815.09;4987239;28;20042;-37
2023/05/22 01:00:46;;;;;;;13.27;10.27;;;14.50;99.90;;;14.27;100.00;96804.22;4992587;28;20085;-37
2023/05/22 01:03:13;;;;;;;15.63;10.45;;;14.50;99.90;;;14.29;100.00;96814.72;4991443;28;20577;-37
2023/05/22 01:05:40;;;;;;;13.40;10.52;;;14.40;99.90;;;14.23;100.00;96810.66;4991360;28;20137;-37
2023/05/22 01:08:08;;;;;;;13.57;10.63;;;14.40;99.90;;;14.15;100.00;96807.59;4990251;28;20042;-37
2023/05/22 01:10:35;;;;;;;11.85;9.77;;;14.40;99.90;;;14.19;100.00;96821.53;4998321;28;20033;-37
2023/05/22 01:13:19;;;;;;;13.10;11.00;;;14.40;99.90;;;14.18;100.00;96819.84;4994763;28;20121;-37
2023/05/22 01:15:58;;;;;;;13.25;10.65;;;14.40;99.90;;;14.13;100.00;96822.75;4999896;28;20056;-37
2023/05/22 01:18:30;;;;;;;12.90;10.00;;;14.40;99.90;;;14.14;100.00;96821.81;4992488;28;20124;-37
2023/05/22 01:21:05;;;;;;;;;;;14.30;99.90;;;14.10;100.00;96825.59;4982074;28;20474;-37
2023/05/22 01:24:05;;;;;;;12.77;10.32;;;14.30;99.90;;;14.11;100.00;96828.16;4999775;28;19963;-37
2023/05/22 01:26:40;;;;;;;12.23;9.88;;;14.30;99.90;;;14.11;100.00;96830.81;4992680;28;20037;-37
2023/05/22 01:29:29;;;;;;;13.48;11.00;;;14.30;99.90;;;14.08;100.00;96824.84;4994469;28;20061;-37
2023/05/22 01:31:58;;;;;;;13.57;10.60;;;14.30;99.90;;;13.98;100.00;96823.66;4992575;28;20030;-37
2023/05/22 01:34:25;;;;;;;12.60;10.73;;;14.20;99.90;;;14.02;100.00;96830.50;4994360;28;20060;-37
2023/05/22 01:36:52;;;;;;;12.85;10.40;;;14.20;99.90;;;13.96;100.00;96829.06;5016151;28;20025;-37
2023/05/22 01:39:18;;;;;;;14.88;11.57;;;14.20;99.90;;;13.90;100.00;96826.78;4998126;28;20038;-37
2023/05/22 01:41:45;;;;;;;13.90;11.00;;;14.10;99.90;;;13.93;100.00;96830.09;4994145;28;20030;-37
2023/05/22 01:44:10;;;;;;;14.48;11.85;;;14.10;99.90;;;13.90;100.00;96830.28;4994977;28;20244;-37
2023/05/22 01:46:36;;;;;;;15.38;11.20;;;14.10;99.90;;;13.88;100.00;96837.47;4993598;28;20092;-38
2023/05/22 01:49:02;;;;;;;13.98;11.45;;;14.10;99.90;;;13.87;100.00;96835.78;4998225;28;20042;-38
2023/05/22 01:51:35;;;;;;;14.48;11.25;;;14.00;99.90;;;13.82;100.00;96824.59;4991973;28;20022;-37
2023/05/22 01:54:08;;;;;;;15.20;11.70;;;14.00;99.90;;;13.82;100.00;96835.19;4997204;28;20600;-37
2023/05/22 01:56:47;;;;;;;13.63;11.57;;;14.00;99.90;;;13.80;100.00;96839.75;4998970;28;20364;-37
2023/05/22 01:59:20;;;;;;;14.82;11.50;;;14.00;99.90;;;13.77;100.00;96837.25;4998586;28;20048;-37
2023/05/22 02:01:49;;;;;;;16.63;11.82;;;14.00;99.90;;;13.77;100.00;96847.88;4988451;28;20511;-37
2023/05/22 02:04:19;;;;;;;14.07;11.45;;;14.00;99.90;;;13.75;100.00;96840.00;4995643;28;20445;-37
2023/05/22 02:06:45;;;;;;;15.52;12.20;;;13.90;99.90;;;13.72;100.00;96842.81;4998236;28;20032;-38
2023/05/22 02:09:13;;;;;;;14.07;11.65;;;13.90;99.90;;;13.70;100.00;96843.88;4992832;28;20030;-38
2023/05/22 02:11:40;;;;;;;17.58;11.70;;;13.90;99.90;;;13.67;100.00;96846.69;4997320;28;20358;-37
2023/05/22 02:14:07;;;;;;;17.50;12.73;;;13.90;99.90;;;13.65;100.00;96845.94;4990856;28;20038;-37
2023/05/22 02:16:33;;;;;;;14.48;12.00;;;13.80;99.90;;;13.62;100.00;96844.31;4995533;28;20025;-38
2023/05/22 02:19:06;;;;;;;18.85;12.10;;;13.80;99.90;;;13.60;100.00;96840.88;4991254;28;20034;-38
2023/05/22 02:21:34;;;;;;;16.35;11.35;;;13.80;99.90;;;13.60;100.00;96855.94;4988369;28;20168;-38
2023/05/22 02:24:00;;;;;;;15.07;11.90;;;13.80;99.90;;;13.49;100.00;96827.41;4995735;28;20037;-38
2023/05/22 02:26:26;;;;;;;14.70;12.38;;;13.70;99.90;;;13.56;100.00;96849.97;4999881;28;20038;-38
2023/05/22 02:28:52;;;;;;;15.30;12.13;;;13.70;99.90;;;13.54;100.00;96838.59;4993468;28;20088;-38
2023/05/22 02:31:18;;;;;;;15.20;12.25;;;13.70;99.90;;;13.51;100.00;96841.41;4993734;28;20518;-37
2023/05/22 02:33:44;;;;;;;15.05;12.23;;;13.70;99.90;;;13.53;100.00;96836.88;4994144;28;20036;-37
2023/05/22 02:36:11;;;;;;;15.07;11.75;;;13.70;99.90;;;13.51;100.00;96836.13;4991201;28;20088;-36
2023/05/22 02:38:38;;;;;;;14.68;11.98;;;13.70;99.90;;;13.53;100.00;96839.53;4998297;28;20419;-36
2023/05/22 02:41:04;;;;;;;15.35;12.02;;;13.70;99.90;;;13.55;100.00;96832.38;4993801;28;20486;-36
2023/05/22 02:43:30;;;;;;;16.88;11.98;;;13.70;99.90;;;13.53;100.00;96824.50;4989177;28;20033;-36
2023/05/22 02:45:55;;;;;;;15.02;11.98;;;13.70;99.90;;;13.62;100.00;96830.19;4977410;28;20520;-36
2023/05/22 02:48:21;;;;;;;16.88;11.98;;;13.80;99.90;;;13.66;100.00;96835.25;4989691;28;20081;-36
2023/05/22 02:50:47;;;;;;;18.05;12.02;;;13.80;99.90;;;13.71;100.00;96835.81;4993766;28;20501;-36
2023/05/22 02:53:14;;;;;;;13.90;11.70;;;13.90;99.90;;;13.77;100.00;96834.63;4993769;28;20116;-37
2023/05/22 02:55:40;;;;;;;15.02;11.70;;;13.90;99.90;;;13.79;100.00;96835.38;4992577;28;20037;-37
2023/05/22 02:58:10;;;;;;;13.68;11.65;;;14.00;99.90;;;13.84;100.00;96837.75;5000897;28;20540;-36
2023/05/22 03:00:38;;;;;;;14.68;11.05;;;14.00;99.90;;;13.85;100.00;96835.00;4991169;28;20138;-37
2023/05/22 03:03:04;;;;;;;14.65;12.25;;;14.00;99.90;;;13.85;100.00;96832.34;4996844;28;20152;-38
2023/05/22 03:05:30;;;;;;;14.75;11.35;;;14.00;99.90;;;13.75;100.00;96812.66;4995509;28;20037;-37
2023/05/22 03:07:56;;;;;;;13.57;11.38;;;14.00;99.90;;;13.82;100.00;96837.84;5000252;28;21697;-37
2023/05/22 03:10:22;;;;;;;14.13;12.05;;;14.00;99.90;;;13.82;100.00;96847.56;4994051;28;20033;-38
2023/05/22 03:12:50;;;;;;;14.02;11.43;;;14.00;99.90;;;13.79;100.00;96843.31;4996346;28;20026;-37
2023/05/22 03:15:17;;;;;;;16.88;11.93;;;14.00;99.90;;;13.77;100.00;96842.56;4994093;28;20030;-38
2023/05/22 03:17:42;;;;;;;15.52;11.93;;;14.00;99.90;;;13.76;100.00;96846.16;4995738;28;20328;-37
2023/05/22 03:20:08;;;;;;;15.82;11.07;;;13.90;99.90;;;13.67;100.00;96828.97;4992689;28;20039;-37
2023/05/22 03:22:34;;;;;;;13.70;11.70;;;13.90;99.90;;;13.74;100.00;96851.53;4992705;28;20179;-38
2023/05/22 03:25:00;;;;;;;13.82;11.48;;;13.90;99.90;;;13.72;100.00;96853.41;4994926;28;20030;-37
2023/05/22 03:27:26;;;;;;;13.65;10.93;;;13.90;99.90;;;13.74;100.00;96845.38;4994697;28;20562;-37
2023/05/22 03:29:52;;;;;;;14.68;11.80;;;13.90;99.90;;;13.74;100.00;96848.88;4990909;28;20124;-37
2023/05/22 03:32:17;;;;;;;14.23;11.65;;;13.90;99.90;;;13.76;100.00;96862.03;4993303;28;20037;-37
2023/05/22 03:34:43;;;;;;;14.65;12.13;;;14.00;99.90;;;13.78;100.00;96857.50;4995244;28;20121;-37
2023/05/22 03:37:09;;;;;;;14.60;11.18;;;14.00;99.90;;;13.83;100.00;96857.25;4996424;28;20054;-37
2023/05/22 03:39:35;;;;;;;14.00;11.93;;;14.00;99.90;;;13.88;100.00;96856.03;4986032;28;20030;-37
2023/05/22 03:42:00;;;;;;;16.13;11.18;;;14.10;99.90;;;13.94;100.00;96860.09;4996287;28;20045;-37
2023/05/22 03:44:26;;;;;;;13.18;11.60;;;14.20;99.90;;;13.98;100.00;96866.97;4991750;28;20495;-38
2023/05/22 03:46:52;;;;;;;13.45;11.48;;;14.20;99.90;;;14.00;100.00;96861.53;4987525;28;20078;-37
2023/05/22 03:49:18;;;;;;;15.50;11.70;;;14.20;99.90;;;14.02;100.00;96863.16;4989621;28;20310;-37
2023/05/22 03:51:43;;;;;;;15.93;12.13;;;14.30;99.90;;;14.04;100.00;96871.03;4995623;28;20053;-37
2023/05/22 03:54:09;;;;;;;15.88;11.38;;;14.30;99.90;;;14.04;100.00;96866.59;4991481;28;20649;-37
2023/05/22 03:56:35;;;;;;;15.48;11.13;;;14.30;99.90;;;14.05;100.00;96857.69;4994627;28;20037;-38
2023/05/22 03:59:00;;;;;;;13.43;10.80;;;14.30;99.90;;;14.10;100.00;96860.06;4995168;28;20530;-37
2023/05/22 04:01:26;;;;;;;12.90;9.93;;;14.30;99.90;;;14.13;100.00;96862.53;4991589;28;20061;-37
2023/05/22 04:03:52;;;;;;;12.07;10.48;;;14.40;99.90;;;14.17;100.00;96865.84;4992495;28;20036;-37
2023/05/22 04:06:20;;;;;;;14.45;11.48;;;14.40;99.90;;;14.21;100.00;96870.03;4989751;28;20491;-38
2023/05/22 04:08:47;;;;;;;16.00;11.93;;;14.40;99.90;;;14.27;100.00;96872.31;4991289;28;20034;-37
2023/05/22 04:11:14;;;;;;;14.48;11.45;;;14.50;99.90;;;14.24;100.00;96860.09;4989578;28;20026;-37
2023/05/22 04:13:43;;;;;;;12.43;10.60;;;14.50;99.90;;;14.32;100.00;96865.78;4988664;28;20249;-37
2023/05/22 04:16:09;;;;;;;12.73;10.65;;;14.60;99.90;;;14.39;100.00;96870.72;4991654;28;20031;-37
2023/05/22 04:18:35;;;;;;;14.13;10.60;;;14.60;99.90;;;14.39;100.00;96860.09;4992102;28;20036;-38
2023/05/22 04:21:01;;;;;;;12.80;10.77;;;14.70;99.90;;;14.54;100.00;96876.91;4990330;28;20065;-37
2023/05/22 04:23:27;;;;;;;14.20;10.80;;;14.80;99.90;;;14.58;100.00;96878.44;4991217;28;20670;-37
2023/05/22 04:25:53;;;;;;;15.65;11.20;;;14.80;99.90;;;14.58;100.00;96878.44;4991871;28;20038;-37
2023/05/22 04:28:21;;;;;;;12.88;10.85;;;14.80;99.90;;;14.56;100.00;96880.31;4994004;28;20060;-37
2023/05/22 04:30:47;;;;;;;13.93;11.25;;;14.70;99.90;;;14.54;100.00;96892.81;4986883;28;20065;-37
2023/05/22 04:33:13;;;;;;;13.32;10.85;;;14.70;99.90;;;14.50;100.00;96890.34;4986371;28;20176;-37
2023/05/22 04:35:43;;;;;;;15.27;11.32;;;14.70;99.90;;;14.47;100.00;96879.06;4990557;28;20030;-37
2023/05/22 04:38:09;;;;;;;14.50;10.52;;;14.70;99.90;;;14.43;100.00;96886.38;4991211;28;20038;-37
2023/05/22 04:40:36;;;;;;;15.13;10.88;;;14.60;99.90;;;14.39;100.00;96876.88;4989013;28;20033;-38
2023/05/22 04:43:02;;;;;;;13.95;11.23;;;14.60;99.90;;;14.46;100.00;96885.31;4994951;28;20026;-37
2023/05/22 04:45:29;;;;;;;13.77;10.73;;;14.60;99.90;;;14.48;100.00;96886.94;4990267;28;20034;-38
2023/05/22 04:47:55;;;;;;;13.80;11.43;;;14.70;99.90;;;14.55;100.00;96891.84;4981657;28;20165;-37
2023/05/22 04:50:22;;;;;;;13.52;10.90;;;14.70;99.90;;;14.54;100.00;96876.91;4988584;28;20045;-37
2023/05/22 04:52:48;;;;;;;13.50;10.98;;;14.80;99.90;;;14.66;100.00;96892.94;4995418;28;20080;-37
2023/05/22 04:55:14;;;;;;;13.27;11.02;;;14.80;99.90;;;14.73;100.00;96898.72;4997555;28;20030;-37
2023/05/22 04:57:43;;;;;;;13.77;11.38;;;14.90;99.90;;;14.80;100.00;96899.19;4990442;28;20026;-37
2023/05/22 05:00:09;;;;;;;12.07;10.57;;;14.90;99.90;;;14.87;100.00;96897.88;4994096;28;20033;-39
2023/05/22 05:02:35;;;;;;;12.32;10.48;;;15.00;99.90;;;14.95;100.00;96900.91;4989047;28;20621;-37
2023/05/22 05:05:01;;;;;;;14.02;10.88;;;15.10;99.90;;;15.02;100.00;96899.56;4993277;28;20129;-38
2023/05/22 05:07:26;;;;;;;12.05;10.38;;;15.20;99.90;;;15.12;100.00;96904.31;4987969;28;20030;-37
2023/05/22 05:09:52;;;;;;;13.45;10.80;;;15.30;99.90;;;15.21;100.00;96904.56;4991482;28;20041;-37
2023/05/22 05:12:18;;;;;;;14.50;9.80;;;15.40;99.90;;;15.34;100.00;96901.13;4993037;28;20038;-37
2023/05/22 05:14:43;;;;;;;13.65;10.88;;;15.50;99.90;;;15.45;100.00;96896.84;4991166;28;20033;-38
2023/05/22 05:17:09;;;;;;;12.68;10.20;;;15.60;99.90;;;15.59;100.00;96897.72;4991877;28;20316;-38
2023/05/22 05:19:35;;;;;;;15.63;10.38;;;15.70;99.90;;;15.72;100.00;96897.78;4989202;28;20032;-41
2023/05/22 05:22:00;;;;;;;12.23;10.48;;;15.90;99.90;;;15.86;100.00;96900.41;4987135;28;20498;-37
2023/05/22 05:24:26;;;;;;;14.13;10.75;;;16.00;99.90;;;16.01;100.00;96903.88;4992376;28;20041;-37
2023/05/22 05:26:52;;;;;;;14.27;10.88;;;16.20;99.90;;;16.15;100.00;96901.16;4992146;28;20494;-37
2023/05/22 05:29:18;;;;;;;14.60;10.85;;;16.30;99.90;;;16.31;100.00;96903.63;4999629;28;20041;-37
2023/05/22 05:31:43;;;;;;;14.98;11.13;;;16.50;99.90;;;16.46;100.00;96892.91;4989999;28;20088;-38
2023/05/22 05:34:09;;;;;;;13.65;10.68;;;16.60;99.90;;;16.59;100.00;96886.59;4989739;28;20732;-37
2023/05/22 05:36:35;;;;;;;11.50;9.52;;;16.80;99.90;;;16.88;100.00;96904.19;4986096;28;20235;-38
2023/05/22 05:39:01;;;;;;;10.30;8.98;;;17.00;99.90;;;17.14;100.00;96895.22;4990668;28;20037;-37
2023/05/22 05:41:26;;;;;;;12.82;9.27;;;17.20;99.90;;;17.38;100.00;96899.72;4993014;28;20447;-37
2023/05/22 05:43:52;;;;;;;10.45;8.68;;;17.40;99.90;;;17.64;100.00;96907.63;4992999;28;20045;-38
2023/05/22 05:46:18;;;;;;;11.20;8.85;;;17.60;99.90;;;17.97;100.00;96906.16;4991440;28;20057;-38
2023/05/22 05:48:44;;;;;;;13.07;8.85;;;18.00;99.90;;;18.26;100.00;96906.63;4985563;28;20037;-38
2023/05/22 05:51:10;;;;;;;10.73;8.95;;;18.30;99.90;;;18.55;100.00;96907.06;4994103;28;20131;-38
2023/05/22 05:53:36;;;;;;;11.40;8.52;;;18.60;99.90;;;18.80;100.00;96900.66;4989825;28;20026;-38
2023/05/22 05:56:02;;;;;;;13.15;10.30;;;18.90;99.90;;;18.96;100.00;96911.03;4993470;28;20099;-38
2023/05/22 05:58:28;;;;;;;12.05;9.55;;;19.10;99.90;;;19.05;100.00;96910.28;4990629;28;20474;-38
2023/05/22 06:00:54;;;;;;;10.95;9.15;;;19.20;99.90;;;19.19;100.00;96913.72;4980775;28;20064;-38
2023/05/22 06:03:20;;;;;;;12.02;9.90;;;19.30;99.90;;;19.19;100.00;96919.91;4989838;28;20061;-39
2023/05/22 06:05:45;;;;;;;11.40;8.90;;;19.40;99.90;;;19.31;100.00;96920.75;4991807;28;20029;-37
2023/05/22 06:08:12;;;;;;;15.85;10.77;;;19.40;99.90;;;19.35;100.00;96929.38;4986519;28;20181;-37
2023/05/22 06:10:38;;;;;;;16.67;11.35;;;19.50;99.90;;;19.35;100.00;96922.22;4992262;28;20079;-39
2023/05/22 06:13:04;;;;;;;13.90;11.07;;;19.50;99.90;;;19.51;100.00;96932.53;4988200;28;20401;-38
2023/05/22 06:15:30;;;;;;;14.90;10.82;;;19.60;99.90;;;19.65;100.00;96924.22;4987341;28;20133;-39
2023/05/22 06:17:56;;;;;;;14.38;10.02;;;19.70;99.90;;;19.73;100.00;96920.09;4986937;28;20033;-37
2023/05/22 06:20:23;;;;;;;11.20;9.48;;;19.80;99.90;;;19.88;100.00;96928.69;4990325;28;20041;-37
2023/05/22 06:22:50;;;;;;;16.15;10.40;;;20.00;99.90;;;19.88;100.00;96926.88;4985509;28;20038;-38
2023/05/22 06:25:16;;;;;;;11.38;8.52;;;20.00;99.90;;;19.98;100.00;96926.97;4986030;28;20191;-37
2023/05/22 06:27:42;;;;;;;10.10;8.88;;;20.00;99.90;;;20.06;100.00;96926.31;4988372;28;20398;-37
2023/05/22 06:30:08;;;;;;;14.20;10.05;;;20.00;99.90;;;19.91;100.00;96925.78;4986314;28;20037;-38
2023/05/22 06:32:34;;;;;;;11.30;9.35;;;20.00;99.90;;;19.88;100.00;96931.38;4978518;28;20136;-37
2023/05/22 06:35:00;;;;;;;8.98;7.93;;;19.90;99.90;;;19.98;100.00;96929.66;4987572;28;20056;-38
2023/05/22 06:37:26;;;;;;;10.50;8.80;;;19.90;99.90;;;20.04;100.00;96926.44;4994331;28;20030;-37
2023/05/22 06:39:51;;;;;;;13.38;9.48;;;20.00;99.90;;;20.13;100.00;96936.38;4991953;28;20504;-37
2023/05/22 06:42:17;;;;;;;14.85;11.60;;;20.10;99.90;;;20.11;100.00;96937.50;4995236;28;20497;-37
2023/05/22 06:44:43;;;;;;;12.38;9.70;;;20.10;99.90;;;20.17;100.00;96932.50;4995174;28;20038;-37
2023/05/22 06:47:10;;;;;;;10.05;8.23;;;20.10;99.90;;;20.26;100.00;96928.22;4977958;28;20096;-37
2023/05/22 06:49:35;;;;;;;10.02;8.43;;;20.20;99.90;;;20.16;100.00;96921.91;4989710;28;20041;-39
2023/05/22 06:52:01;;;;;;;10.13;8.32;;;20.20;99.90;;;20.16;100.00;96932.63;4995109;28;20034;-37
2023/05/22 06:54:28;;;;;;;9.20;7.97;;;20.10;99.90;;;20.20;100.00;96940.25;4994010;28;20646;-38
2023/05/22 06:56:55;;;;;;;10.45;8.45;;;20.10;99.90;;;20.28;100.00;96938.75;4981763;28;20037;-38
2023/05/22 06:59:20;;;;;;;9.70;8.02;;;20.20;99.90;;;20.33;100.00;96931.19;4986617;28;20193;-37
2023/05/22 07:01:46;;;;;;;10.18;8.38;;;20.20;99.90;;;20.40;100.00;96935.94;4989039;28;20272;-37
2023/05/22 07:04:12;;;;;;;14.15;10.02;;;20.30;99.90;;;20.46;100.00;96941.72;4992817;28;20450;-37
2023/05/22 07:06:40;;;;;;;10.95;8.70;;;20.40;99.90;;;20.49;100.00;96941.47;4993048;28;20030;-38
2023/05/22 07:09:07;;;;;;;11.13;9.20;;;20.40;99.90;;;20.59;100.00;96937.88;4987166;28;20042;-37
2023/05/22 07:11:34;;;;;;;12.80;8.23;;;20.50;99.90;;;20.73;100.00;96944.78;4987992;28;20033;-37
2023/05/22 07:14:01;;;;;;;13.82;9.07;;;20.60;99.90;;;20.93;98.31;96947.59;4982776;28;20026;-38
2023/05/22 07:16:28;;;;;;;11.52;9.60;;;20.70;99.90;;;21.14;98.22;96944.88;4983389;28;20038;-38
2023/05/22 07:18:54;;;;;;;15.80;9.95;;;20.90;99.90;;;21.15;92.87;96938.53;5006983;28;20038;-38
2023/05/22 07:21:22;;;;;;;15.73;10.38;;;21.00;99.90;;;20.91;92.14;96947.72;4987517;28;20045;-39
2023/05/22 07:23:49;;;;;;;13.43;8.43;;;20.90;99.90;;;20.70;94.37;96945.03;4990272;28;20486;-38
2023/05/22 07:26:15;;;;;;;15.50;9.25;;;20.60;99.90;;;20.49;100.00;96944.16;4991312;28;20422;-39
2023/05/22 07:28:41;;;;;;;11.93;8.75;;;20.50;99.90;;;20.48;100.00;96942.47;4986682;28;20080;-38
2023/05/22 07:31:07;;;;;;;13.57;10.93;;;20.40;99.90;;;20.53;97.64;96949.13;4993028;28;20037;-39
2023/05/22 07:33:32;;;;;;;13.32;9.02;;;20.50;99.90;;;20.70;99.39;96946.88;4982948;28;20034;-39
2023/05/22 07:35:58;;;;;;;13.57;10.40;;;20.60;99.90;;;20.83;96.90;96952.88;4996385;28;20155;-38
2023/05/22 07:38:24;;;;;;;11.98;10.10;;;20.70;99.90;;;20.90;95.39;96948.69;4996006;28;20029;-38
2023/05/22 07:40:50;;;;;;;10.60;8.73;;;20.90;99.90;;;21.07;97.13;96936.53;5042269;22;20133;-39
2023/05/22 07:43:15;;;;;;;14.40;9.93;;;21.00;99.90;;;21.23;97.40;96943.22;5029632;28;20037;-40
2023/05/22 07:45:42;;;;;;;9.40;8.05;;;21.20;99.90;;;21.43;99.18;96950.38;5023618;28;20028;-39
2023/05/22 07:48:08;;;;;;;10.50;8.27;;;21.40;99.90;;;21.62;97.23;96948.75;5017508;28;20029;-39
2023/05/22 07:50:34;;;;;;;11.73;8.98;;;21.60;99.90;;;21.83;95.18;96946.00;5013282;28;20064;-40
2023/05/22 07:53:00;;;;;;;11.45;8.98;;;21.80;99.90;;;21.97;89.73;96952.81;5015875;28;20026;-39
2023/05/22 07:55:26;;;;;;;11.73;9.10;;;21.90;99.90;;;21.87;87.79;96937.50;5013626;28;20551;-42
2023/05/22 07:57:52;;;;;;;13.00;10.32;;;21.90;99.90;;;21.91;86.50;96946.13;5001946;28;20511;-39
2023/05/22 08:00:18;;;;;;;13.15;9.55;;;21.90;99.90;;;21.91;87.10;96944.31;5008525;28;20033;-41
2023/05/22 08:02:44;;;;;;;12.23;9.02;;;21.90;99.90;;;21.98;83.67;96946.44;5006663;28;20520;-39
2023/05/22 08:05:10;;;;;;;13.15;9.10;;;22.00;99.90;;;22.10;82.36;96953.38;4998599;28;20033;-42
2023/05/22 08:07:36;;;;;;;9.48;8.38;;;22.10;99.90;;;22.19;89.14;96939.13;4996744;28;20022;-39
2023/05/22 08:10:06;;;;;;;9.68;8.07;;;22.20;99.90;;;22.44;84.25;96948.47;5003709;28;24066;-38
2023/05/22 08:12:32;;;;;;;12.07;8.85;;;22.40;99.90;;;22.77;84.24;96950.84;5010116;28;20478;-38
2023/05/22 08:14:57;;;;;;;9.20;7.68;;;22.70;99.90;;;23.01;84.87;96945.84;5008436;28;20018;-38
2023/05/22 08:17:23;;;;;;;11.18;8.30;;;23.00;99.90;;;23.18;84.79;96955.03;5008231;28;20111;-39
2023/05/22 08:19:49;;;;;;;10.63;8.95;;;23.10;99.90;;;23.21;79.80;96945.84;5012901;28;20060;-38
2023/05/22 08:22:15;;;;;;;11.85;9.20;;;23.20;99.90;;;23.16;81.34;96951.63;5003628;28;20037;-39
2023/05/22 08:24:41;;;;;;;9.75;8.18;;;23.10;99.90;;;23.08;81.41;96950.66;5013044;28;20594;-39
2023/05/22 08:27:06;;;;;;;10.80;8.82;;;23.00;99.90;;;22.94;85.60;96951.97;5006594;28;20033;-39
2023/05/22 08:29:32;;;;;;;11.32;9.63;;;22.90;99.90;;;22.84;76.06;96949.28;5018272;28;20076;-40
2023/05/22 08:31:58;;;;;;;8.93;8.02;;;22.80;99.90;;;22.95;77.83;96946.44;5010873;28;20034;-41
2023/05/22 08:34:24;;;;;;;11.25;8.90;;;22.90;99.90;;;23.08;79.49;96946.16;5016722;28;20025;-40
2023/05/22 08:36:50;;;;;;;12.95;9.00;;;23.00;99.90;;;23.21;80.85;96948.53;5011268;28;20067;-40
2023/05/22 08:39:17;;;;;;;11.68;8.57;;;23.30;99.90;;;23.53;74.56;96947.28;5012164;28;20220;-40
2023/05/22 08:41:44;;;;;;;9.07;8.18;;;23.50;99.90;;;23.81;72.62;96932.84;5005071;28;20036;-41
2023/05/22 08:44:12;;;;;;;14.27;9.75;;;23.80;99.90;;;23.98;70.54;96939.25;5007334;28;20022;-41
2023/05/22 08:46:42;;;;;;;13.40;9.00;;;24.10;99.90;;;24.19;72.48;96936.28;5006354;28;20305;-40
2023/05/22 08:49:09;;;;;;;9.02;7.90;;;24.20;99.90;;;24.37;73.40;96940.78;5016027;28;20116;-40
2023/05/22 08:51:39;;;;;;;10.35;8.68;;;24.30;99.90;;;24.34;76.90;96938.44;5004901;28;20397;-40
2023/05/22 08:54:08;;;;;;;11.68;8.68;;;24.40;99.90;;;24.23;72.80;96933.25;5014154;28;20029;-41
2023/05/22 08:56:38;;;;;;;11.73;9.05;;;24.30;99.90;;;24.15;73.23;96942.94;5010453;28;20020;-41
2023/05/22 08:59:05;;;;;;;12.15;8.60;;;24.20;99.90;;;24.16;72.38;96936.56;5014820;28;20033;-39
2023/05/22 09:01:31;;;;;;;14.68;9.20;;;24.20;99.90;;;24.12;69.05;96947.78;5016783;28;20081;-40
2023/05/22 09:04:00;;;;;;;13.05;10.15;;;24.20;99.90;;;23.92;63.88;96941.69;5010869;28;20121;-39
2023/05/22 09:06:30;;;;;;;12.73;8.85;;;24.20;99.90;;;24.00;65.80;96936.41;5008240;28;20309;-40
2023/05/22 09:08:58;;;;;;;12.23;8.77;;;24.20;99.90;;;24.16;66.74;96943.81;5018985;28;20030;-40
2023/05/22 09:11:25;;;;;;;11.52;8.90;;;24.30;99.90;;;24.35;64.74;96940.09;5013348;28;20105;-40
2023/05/22 09:13:51;;;;;;;13.95;9.20;;;24.50;99.90;;;24.65;63.99;96935.34;5009560;28;20038;-41
2023/05/22 09:16:18;;;;;;;9.82;8.82;;;24.80;99.90;;;24.88;61.95;96946.47;5013228;28;20107;-40
2023/05/22 09:18:44;;;;;;;13.75;9.50;;;25.00;99.90;;;24.97;61.25;96942.84;5008383;28;20513;-39
2023/05/22 09:21:12;;;;;;;12.15;9.20;;;25.20;99.90;;;25.18;63.08;96947.88;5013288;28;20048;-39
2023/05/22 09:23:38;;;;;;;12.80;8.95;;;25.40;99.90;;;25.31;62.44;96937.50;5005614;28;20032;-40
2023/05/22 09:26:03;;;;;;;13.30;9.55;;;25.60;99.90;;;25.32;58.15;96939.22;5016148;28;20038;-40
2023/05/22 09:28:35;;;;;;;10.52;8.60;;;25.60;99.90;;;25.41;66.09;96940.09;5009664;28;20040;-40
2023/05/22 09:31:02;;;;;;;12.40;9.15;;;25.70;99.90;;;25.48;63.90;96938.44;5010875;28;20090;-39
2023/05/22 09:33:29;;;;;;;15.48;9.38;;;25.70;99.90;;;25.30;61.04;96945.75;5010868;28;20497;-41
2023/05/22 09:35:55;;;;;;;12.48;9.20;;;25.50;99.90;;;25.09;66.02;96940.72;5016729;28;20222;-39
2023/05/22 09:38:22;;;;;;;11.27;9.32;;;25.40;99.90;;;24.97;61.68;96942.84;5012334;28;20053;-41
2023/05/22 09:40:55;;;;;;;10.25;8.35;;;25.10;99.90;;;24.63;62.64;96938.19;5010624;28;20029;-41
2023/05/22 09:43:24;;;;;;;15.07;9.18;;;24.90;99.90;;;24.56;64.34;96939.81;5015252;28;20032;-40
2023/05/22 09:45:57;;;;;;;13.82;9.45;;;24.70;99.90;;;24.39;65.88;96945.03;5001847;28;20040;-40
2023/05/22 09:48:23;;;;;;;14.13;9.38;;;24.60;99.90;;;24.20;69.49;96921.78;5010724;28;20040;-42
2023/05/22 09:50:52;;;;;;;14.57;10.38;;;24.50;99.90;;;24.19;66.65;96938.97;4996303;28;20033;-40
2023/05/22 09:53:24;;;;;;;11.30;8.85;;;24.30;99.90;;;24.16;69.66;96931.19;5008235;28;20032;-40
2023/05/22 09:55:52;;;;;;;18.17;10.25;;;24.20;99.90;;;24.16;70.88;96933.03;5017394;28;21727;-39
2023/05/22 09:58:19;;;;;;;13.05;9.27;;;24.20;99.90;;;24.29;67.88;96938.88;5011691;28;20029;-39
2023/05/22 10:00:47;;;;;;;11.30;8.77;;;24.30;99.90;;;24.43;69.49;96928.56;5000583;28;20354;-40
2023/05/22 10:03:15;;;;;;;10.32;9.20;;;24.50;99.90;;;24.46;68.58;96937.19;5011642;28;20026;-39
2023/05/22 10:05:53;;;;;;;12.15;9.48;;;24.50;99.90;;;24.26;66.54;96941.88;5006948;28;20087;-40